Cresco, PA

6:36 PM EDT on September 03, 2015 (GMT -0400)
Pine Hill Estates | | Change Station
CLOSE
Current Station
Personal Weather Station
Location: Mount Pocono, PA
Elevation: 1781 ft
Nearby Weather Stations

Elev 1781 ft 41.13 °N, 75.35 °W | Updated 15 seconds ago

Partly Cloudy
Partly Cloudy
72.6 °F
Feels Like 72.6 °F
N
0.0
Wind Variable Wind from North
Gusts 0.0 mph

Today
High -- | Low -- °F
--% Chance of Precip.
Yesterday
High -- | Low -- °F
Precip. -- in
6:29 AM 7:30 PM
Waning Gibbous, 66% visible
Pressure 29.91 in
Visibility 9.0 miles
Clouds Clear
Dew Point 70 °F
Humidity 93%
Rainfall 0.04 in
Snow Depth Not available.
UV 0.0 out of 12
Pollen 9.70 out of 12
Air Quality Not available.
Flu Activity Not available.
METAR KMPO 032153Z AUTO 01003KT 9SM CLR 26/19 A2994 RMK AO2 LTG DSNT S-W RAB2056E09 TSE48 SLP126 P0000 T02610194
Pressure 29.91 in
Visibility 9.0 miles
Clouds Clear
Dew Point 70 °F
Humidity 93%
Rainfall 0.04 in
Snow Depth Not available.
UV 0.0 out of 12
Pollen 9.70 out of 12
Air Quality Not available.
Flu Activity Not available.
METAR KMPO 032153Z AUTO 01003KT 9SM CLR 26/19 A2994 RMK AO2 LTG DSNT S-W RAB2056E09 TSE48 SLP126 P0000 T02610194
Nowcast | as of 4:25 PM EDT on September 3, 2015

Isolated thunderstorms will continue to press in from the north- northwest late this afternoon. A brief, but heavy, downpour is expected with wind gusts upwards of 35 mph possible.

×

10-Day Weather Forecast

×

Almanac

Astronomy

Sep. 03, 2015 Rise Set
Actual Time
Civil Twilight
Nautical Twilight
Astronomical Twilight
Moon
Length of Visible Light
Length of Day
Tomorrow will be .
, % of the Moon is Illuminated

Today's Extremes

State Highs State Lows

Community

WunderPhotos

Upload Photos

1,852,049 photos uploaded!

WunderBlogs® & News

Nearby

Air Quality

  Air Quality AQ Index Pollutant
Not available.

Snow Depth

Station Depth Elevation

Earthquake Activity

City Distance Mag. Time & Date
Minimum magnitude displayed is 2.5.

Coastal Water Temperatures

Place Temperature

Stations

Nearby Weather Stations

Station Location Temp. Windchill Dew Point Humidity Wind Precip. Elev Updated Type